Eunice, Missouri
Current Conditions -  °F | °C
As of 12:53 PM on Thursday 23 Oct 2014 (Local Time) from KUNO Reporting Station
Clear Clear  
Wind Chill: 56°   Ceiling: Unl
Heat Index: 56°   Visibility: 10mi
Dew Point: 44°   Wind: 5mph
Humidity: 64%   Direction: 180°S
Pressure: 30.19"   Gusts: NA
Location:  37.24°N, 91.78°W
Report Text: KUNO 231753Z AUTO 18004KT 10SM CLR 13/07 A3019 RMK AO2 SLP225 T01330067 10133 20044 58013
Loading
Personal Weather Stations






























Interactive Weather Map
Tropical Storm Tracking
New forecast layout! Learn more

10-Day Weather Forecast

Advertisements
Track Severe Weather on mobile